메인 페이지
METAR-TAF:

METAR-TAF

공항 :

Tyler Pounds Regional Airport

Tyler, 텍사스, 미국

위도: 32-21-31N, 경도: 095-24-14W, 고도: 165m

현재 날씨관측

예보는 52분 전, 10:53시(UTC)에 발표되었습니다.
북북동4kt
온도 12°C
습도 94%
기압 1012 hPa
시정: 9.7km
고도 300ft 상공 흐림
약한비, 박무

METAR: KTYR 281053Z AUTO 02004KT 6SM -RA BR OVC003 12/11 A2988 RMK AO2 SLP115 P0003 T01170111

시각: 06:45 (11:45 UTC)

예보

예보는 7분 전, 11:38시(UTC)에 발표되었습니다.
예보 대상 시간: 28일 12시부터 29일 12시까지 (UTC)
북북동7kt
시정: 4.8km
고도 300ft 상공 흐림
소나기, 박무
28일 1400시부터 (UTC)
북서8kt
시정: 3.2km
고도 300ft 상공 흐림, 적란운.
뇌우, 비, 박무
28일 2100시부터 (UTC)
북서8kt
시정: 4.8km
고도 500ft 상공 흐림
소나기, 박무
29일 0000시부터 (UTC)
서북서10kt
시정: 4.8km
고도 500ft 상공 흐림
약한이슬비, 박무
29일 0300시부터 (UTC)
서북서10kt
시정: 10km
고도 1000ft 상공 흐림
29일 0800시부터 (UTC)
10kt
시정: 10km
고도 1500ft 상공 흐림

TAF: KTYR 281138Z 2812/2912 03007KT 3SM SHRA BR OVC003 FM281400 32008KT 2SM TSRA BR OVC003CB FM282100 31008KT 3SM SHRA BR OVC005 FM290000 29010KT 3SM -DZ BR OVC005 FM290300 29010KT P6SM OVC010 FM290800 26010KT P6SM OVC015

4,000개 이상의 공항 관측 자료 및 예보 (METAR 및 TAF 보고).

지도상에서 검색 가능한 기상관측소가 노란 점과 빨간 점으로 표시되어 있습니다.

기상관측소 명을 보려면 표시 위로 마우스를 이동하세요.

날씨 관측과 예보를 보려면 클릭하세요.

지도 변경 : 확대하려면 엑스 표시가 있는 녹색 버튼, 축소하려면 빼기 표시가 있는 녹색 버튼, 다음 페이지의 지도를 보려면 녹색 화살표를 클릭하세요.


METAR-TAF: